This is the latest recevied weather packets stored in our database for station/object OK1SBY-15. If no packets are shown the sender has not sent any weather packets the latest 10 day(s).
| Time | Temp. | Humidity | Pressure | Rain* | Wind** | Luminosity | Snow |
|---|---|---|---|---|---|---|---|
| 1777931139 | 17.78° C | 59% | 996.4 hPa | 0 mm | - | - | - |
| 1777927541 | 17.78° C | 59% | 996.8 hPa | 0 mm | - | - | - |
| 1777923948 | 17.78° C | 65% | 996.9 hPa | 0 mm | - | - | - |
| 1777920359 | 18.33° C | 64% | 996.6 hPa | 0 mm | - | - | - |
| 1777916769 | 19.44° C | 59% | 996.5 hPa | 0 mm | - | - | - |
| 1777913184 | 25° C | 39% | 996.4 hPa | 0 mm | - | - | - |
| 1777909585 | 25° C | 44% | 996.6 hPa | 0 mm | - | - | - |
| 1777905991 | 29.44° C | 34% | 996.8 hPa | 0 mm | - | - | - |
| 1777902391 | 28.89° C | 33% | 997.2 hPa | 0 mm | - | - | - |
| 1777898782 | 28.33° C | 34% | 997.8 hPa | 0 mm | - | - | - |
| 1777895179 | 28.33° C | 33% | 998.2 hPa | 0 mm | - | - | - |
| 1777891573 | 25.56° C | 40% | 998.8 hPa | 0 mm | - | - | - |
| 1777887962 | 27.22° C | 36% | 999.3 hPa | 0 mm | - | - | - |
| 1777884355 | 22.22° C | 44% | 999.5 hPa | 0 mm | - | - | - |
| 1777880756 | 19.44° C | 50% | 999.2 hPa | 0 mm | - | - | - |
| 1777877160 | 17.22° C | 51% | 999.3 hPa | 0 mm | - | - | - |
| 1777873555 | 13.89° C | 76% | 999.1 hPa | 0 mm | - | - | - |
| 1777869958 | 13.33° C | 70% | 999 hPa | 0 mm | - | - | - |
| 1777866364 | 12.22° C | 74% | 998.3 hPa | 0 mm | - | - | - |
| 1777862771 | 11.67° C | 79% | 998.6 hPa | 0 mm | - | - | - |
| 1777859179 | 13.33° C | 68% | 998.5 hPa | 0 mm | - | - | - |
| 1777855588 | 15° C | 56% | 998.2 hPa | 0 mm | - | - | - |
| 1777851993 | 15.56° C | 55% | 998 hPa | 0 mm | - | - | - |
| 1777848396 | 16.11° C | 54% | 997.9 hPa | 0 mm | - | - | - |
| 1777844804 | 16.67° C | 51% | 997.6 hPa | 0 mm | - | - | - |
* Rain latest hour (hover to see other rain measurements)
** Current wind speed in m/s (hover to see current wind gust speed)